createdAt,value
2018-05-10T00:00:58.000Z,21.00
2018-05-10T00:02:01.272Z,21.00
2018-05-10T00:03:03.744Z,20.90
2018-05-10T00:04:06.236Z,20.90
2018-05-10T00:05:09.804Z,20.90
2018-05-10T00:06:13.493Z,20.90
2018-05-10T00:07:16.752Z,20.90
2018-05-10T00:08:19.224Z,20.90
2018-05-10T00:09:21.988Z,20.90
2018-05-10T00:10:24.842Z,20.90
2018-05-10T00:11:27.625Z,20.90
2018-05-10T00:12:30.111Z,20.90
2018-05-10T00:13:32.592Z,20.90
2018-05-10T00:14:35.076Z,20.90
2018-05-10T00:15:39.876Z,20.80
2018-05-10T00:16:43.128Z,20.80
2018-05-10T00:17:45.595Z,20.80
2018-05-10T00:18:48.072Z,20.70
2018-05-10T00:19:50.560Z,20.70
2018-05-10T00:20:54.036Z,20.70
2018-05-10T00:21:57.287Z,20.70
2018-05-10T00:22:59.760Z,20.70
2018-05-10T00:24:02.228Z,20.70
2018-05-10T00:25:04.967Z,20.70
2018-05-10T00:26:08.973Z,20.70
2018-05-10T00:27:11.475Z,20.70
2018-05-10T00:28:13.948Z,20.70
2018-05-10T00:29:16.424Z,20.60
2018-05-10T00:30:19.239Z,20.60
2018-05-10T00:31:22.387Z,20.60
2018-05-10T00:32:25.636Z,20.60
2018-05-10T00:33:28.108Z,20.60
2018-05-10T00:34:30.575Z,20.60
2018-05-10T00:35:34.018Z,20.60
2018-05-10T00:36:36.528Z,20.60
2018-05-10T00:37:39.001Z,20.60
2018-05-10T00:38:41.472Z,20.50
2018-05-10T00:39:44.709Z,20.40
2018-05-10T00:40:47.515Z,20.40
2018-05-10T00:41:50.776Z,20.30
2018-05-10T00:42:53.252Z,20.30
2018-05-10T00:43:55.720Z,20.30
2018-05-10T00:44:58.200Z,20.30
2018-05-10T00:46:02.406Z,20.20
2018-05-10T00:47:05.668Z,20.20
2018-05-10T00:48:08.140Z,20.20
2018-05-10T00:49:10.611Z,20.10
2018-05-10T00:50:13.432Z,20.10
2018-05-10T00:51:16.715Z,20.10
2018-05-10T00:52:19.216Z,20.10
2018-05-10T00:53:21.688Z,20.10
2018-05-10T00:54:36.176Z,20.10
2018-05-10T00:55:39.725Z,20.10
2018-05-10T00:56:42.991Z,20.10
2018-05-10T00:57:45.463Z,20.10
2018-05-10T00:58:47.936Z,20.10
2018-05-10T00:59:50.412Z,20.10
2018-05-10T01:00:53.745Z,20.10
2018-05-10T01:01:56.264Z,20.10
2018-05-10T01:02:59.504Z,20.10
2018-05-10T01:04:01.986Z,20.10
2018-05-10T01:05:05.647Z,20.10
2018-05-10T01:06:08.466Z,20.10
2018-05-10T01:07:11.745Z,20.10
2018-05-10T01:08:14.220Z,20.10
2018-05-10T01:09:16.687Z,20.10
2018-05-10T01:10:20.155Z,20.00
2018-05-10T01:11:23.606Z,20.00
2018-05-10T01:12:26.139Z,20.00
2018-05-10T01:13:29.375Z,20.00
2018-05-10T01:14:31.855Z,19.90
2018-05-10T01:15:34.637Z,20.00
2018-05-10T01:16:37.893Z,19.90
2018-05-10T01:17:40.380Z,19.90
2018-05-10T01:18:42.855Z,19.80
2018-05-10T01:19:45.327Z,19.80
2018-05-10T01:20:49.620Z,19.70
2018-05-10T01:21:52.874Z,19.70
2018-05-10T01:22:55.360Z,19.70
2018-05-10T01:23:57.828Z,19.70
2018-05-10T01:25:00.309Z,19.70
2018-05-10T01:26:03.021Z,19.70
2018-05-10T01:27:05.528Z,19.70
2018-05-10T01:28:08.025Z,19.70
2018-05-10T01:29:11.320Z,19.70
2018-05-10T01:30:14.869Z,19.70
2018-05-10T01:31:18.413Z,19.70
2018-05-10T01:32:20.928Z,19.70
2018-05-10T01:33:23.416Z,19.70
2018-05-10T01:34:26.652Z,19.70
2018-05-10T01:35:41.270Z,19.70
2018-05-10T01:36:43.775Z,19.70
2018-05-10T01:37:46.244Z,19.60
2018-05-10T01:38:48.732Z,19.60
2018-05-10T01:39:51.972Z,19.60
2018-05-10T01:40:54.618Z,19.60
2018-05-10T01:41:57.112Z,19.60
2018-05-10T01:42:59.584Z,19.60
2018-05-10T01:44:02.080Z,19.60
2018-05-10T01:45:04.833Z,19.60
2018-05-10T01:46:08.380Z,19.50
2018-05-10T01:47:10.870Z,19.50
2018-05-10T01:48:13.340Z,19.50
2018-05-10T01:49:15.828Z,19.50
2018-05-10T01:50:19.985Z,19.50
2018-05-10T01:51:22.651Z,19.50
2018-05-10T01:52:25.152Z,19.50
2018-05-10T01:53:27.623Z,19.50
2018-05-10T01:54:30.116Z,19.40
2018-05-10T01:55:33.624Z,19.40
2018-05-10T01:56:36.121Z,19.40
2018-05-10T01:57:38.593Z,19.40
2018-05-10T01:58:41.059Z,19.40
2018-05-10T01:59:43.548Z,19.40
2018-05-10T02:00:46.957Z,19.30
2018-05-10T02:01:49.448Z,19.30
2018-05-10T02:02:51.916Z,19.30
2018-05-10T02:03:54.383Z,19.30
2018-05-10T02:04:57.112Z,19.20
2018-05-10T02:06:00.655Z,19.10
2018-05-10T02:07:03.144Z,19.10
2018-05-10T02:08:05.616Z,19.10
2018-05-10T02:09:08.847Z,19.00
2018-05-10T02:10:11.604Z,18.90
2018-05-10T02:11:14.376Z,18.90
2018-05-10T02:12:16.867Z,18.90
2018-05-10T02:13:19.340Z,18.90
2018-05-10T02:14:21.811Z,18.90
2018-05-10T02:15:24.745Z,18.90
2018-05-10T02:16:28.144Z,18.90
2018-05-10T02:17:30.611Z,18.80
2018-05-10T02:18:33.079Z,18.80
2018-05-10T02:19:35.547Z,18.80
2018-05-10T02:20:38.296Z,18.70
2018-05-10T02:21:40.796Z,18.70
2018-05-10T02:22:43.264Z,18.70
2018-05-10T02:23:45.732Z,18.70
2018-05-10T02:24:48.204Z,18.70
2018-05-10T02:25:50.923Z,18.60
2018-05-10T02:26:53.428Z,18.60
2018-05-10T02:27:55.896Z,18.60
2018-05-10T02:28:58.368Z,18.70
2018-05-10T02:30:00.836Z,18.60
2018-05-10T02:31:03.561Z,18.60
2018-05-10T02:32:06.052Z,18.60
2018-05-10T02:33:08.520Z,18.50
2018-05-10T02:34:10.992Z,18.60
2018-05-10T02:35:13.817Z,18.50
2018-05-10T02:36:17.411Z,18.50
2018-05-10T02:37:19.909Z,18.40
2018-05-10T02:38:22.380Z,18.40
2018-05-10T02:39:24.848Z,18.40
2018-05-10T02:40:27.675Z,18.40
2018-05-10T02:41:30.203Z,18.40
2018-05-10T02:42:32.672Z,18.40
2018-05-10T02:43:35.910Z,18.40
2018-05-10T02:44:38.384Z,18.40
2018-05-10T02:45:41.053Z,18.30
2018-05-10T02:46:43.626Z,18.30
2018-05-10T02:47:46.092Z,18.30
2018-05-10T02:48:48.561Z,18.30
2018-05-10T02:49:51.032Z,18.30
2018-05-10T02:50:53.751Z,18.20
2018-05-10T02:51:56.263Z,18.20
2018-05-10T02:52:58.735Z,18.20
2018-05-10T02:54:01.204Z,18.20
2018-05-10T02:55:04.016Z,18.20
2018-05-10T02:56:06.830Z,18.10
2018-05-10T02:57:09.336Z,18.10
2018-05-10T02:58:12.572Z,18.10
2018-05-10T02:59:15.040Z,18.10
2018-05-10T03:00:17.780Z,18.10
2018-05-10T03:01:20.547Z,18.10
2018-05-10T03:02:23.064Z,18.10
2018-05-10T03:03:25.532Z,18.00
2018-05-10T03:04:28.004Z,18.00
2018-05-10T03:05:31.471Z,17.90
2018-05-10T03:06:33.961Z,17.90
2018-05-10T03:07:37.212Z,17.80
2018-05-10T03:08:39.679Z,17.80
2018-05-10T03:09:42.147Z,17.80
2018-05-10T03:10:44.973Z,17.80
2018-05-10T03:11:47.480Z,17.90
2018-05-10T03:12:49.968Z,17.90
2018-05-10T03:13:53.207Z,17.80
2018-05-10T03:14:55.676Z,17.80
2018-05-10T03:15:58.469Z,17.80
2018-05-10T03:17:01.722Z,17.80
2018-05-10T03:18:04.252Z,17.80
2018-05-10T03:19:07.488Z,17.70
2018-05-10T03:20:10.140Z,17.70
2018-05-10T03:21:12.994Z,17.70
2018-05-10T03:22:15.480Z,17.70
2018-05-10T03:23:17.968Z,17.80
2018-05-10T03:24:20.440Z,17.70
2018-05-10T03:25:23.306Z,17.80
2018-05-10T03:26:26.034Z,17.70
2018-05-10T03:27:28.535Z,17.70
2018-05-10T03:28:31.019Z,17.70
2018-05-10T03:29:34.291Z,17.70
2018-05-10T03:30:37.064Z,17.60
2018-05-10T03:31:40.320Z,17.60
2018-05-10T03:32:42.792Z,17.60
2018-05-10T03:33:45.287Z,17.60
2018-05-10T03:34:47.755Z,17.60
2018-05-10T03:35:51.178Z,17.60
2018-05-10T03:36:53.668Z,17.60
2018-05-10T03:37:56.141Z,17.60
2018-05-10T03:38:58.627Z,17.60
2018-05-10T03:40:02.799Z,17.60
2018-05-10T03:41:05.590Z,17.60
2018-05-10T03:42:08.072Z,17.60
2018-05-10T03:43:10.542Z,17.60
2018-05-10T03:44:13.803Z,17.50
2018-05-10T03:45:16.466Z,17.50
2018-05-10T03:46:19.965Z,17.50
2018-05-10T03:47:23.248Z,17.50
2018-05-10T03:48:25.722Z,17.40
2018-05-10T03:49:28.268Z,17.40
2018-05-10T03:50:30.901Z,17.40
2018-05-10T03:51:33.404Z,17.40
2018-05-10T03:52:35.872Z,17.30
2018-05-10T03:53:38.342Z,17.30
2018-05-10T03:54:40.827Z,17.30
2018-05-10T03:55:44.348Z,17.20
2018-05-10T03:56:46.848Z,17.20
2018-05-10T03:57:49.319Z,17.20
2018-05-10T03:58:51.787Z,17.20
2018-05-10T03:59:54.280Z,17.20
2018-05-10T04:00:57.733Z,17.20
2018-05-10T04:02:00.224Z,17.20
2018-05-10T04:05:01.340Z,17.20
2018-05-10T04:06:16.263Z,17.20
2018-05-10T04:07:31.422Z,17.20
2018-05-10T04:08:45.960Z,17.20
2018-05-10T04:10:00.451Z,17.20
2018-05-10T04:11:12.300Z,17.10
2018-05-10T04:12:14.805Z,17.10
2018-05-10T04:13:17.271Z,17.10
2018-05-10T04:14:19.744Z,17.10
2018-05-10T04:15:23.474Z,17.00
2018-05-10T04:16:26.197Z,17.00
2018-05-10T04:17:29.448Z,16.90
2018-05-10T04:18:31.920Z,16.90
2018-05-10T04:19:34.440Z,16.90
2018-05-10T04:20:37.274Z,16.90
2018-05-10T04:21:39.764Z,16.90
2018-05-10T04:22:42.232Z,16.90
2018-05-10T04:23:44.715Z,16.90
2018-05-10T04:24:47.951Z,17.00
2018-05-10T04:25:50.793Z,17.00
2018-05-10T04:26:53.283Z,16.90
2018-05-10T04:27:55.833Z,16.90
2018-05-10T04:28:58.239Z,16.90
2018-05-10T04:30:00.708Z,16.90
2018-05-10T04:31:03.412Z,16.90
2018-05-10T04:32:05.904Z,16.90
2018-05-10T04:33:08.376Z,17.00
2018-05-10T04:34:10.848Z,17.00
2018-05-10T04:35:13.734Z,17.00
2018-05-10T04:36:16.664Z,17.00
2018-05-10T04:37:19.165Z,17.00
2018-05-10T04:38:21.631Z,17.00
2018-05-10T04:39:24.105Z,17.00
2018-05-10T04:40:26.828Z,17.00
2018-05-10T04:41:29.415Z,17.00
2018-05-10T04:42:31.888Z,17.00
2018-05-10T04:43:34.360Z,17.00
2018-05-10T04:44:36.831Z,17.00
2018-05-10T04:45:39.660Z,17.00
2018-05-10T04:46:42.185Z,17.00
2018-05-10T04:47:45.424Z,17.10
2018-05-10T04:48:47.895Z,17.10
2018-05-10T04:49:50.375Z,17.10
2018-05-10T04:50:53.008Z,17.10
2018-05-10T04:51:55.524Z,17.10
2018-05-10T04:52:57.991Z,17.10
2018-05-10T04:54:01.230Z,17.10
2018-05-10T04:55:03.971Z,17.00
2018-05-10T04:56:07.627Z,17.00
2018-05-10T04:57:10.136Z,17.00
2018-05-10T04:58:12.605Z,17.00
2018-05-10T04:59:15.072Z,17.00
2018-05-10T05:00:17.846Z,17.00
2018-05-10T05:01:20.720Z,17.00
2018-05-10T05:02:23.235Z,17.00
2018-05-10T05:03:25.722Z,17.00
2018-05-10T05:04:28.183Z,17.00
2018-05-10T05:05:30.890Z,17.00
2018-05-10T05:06:33.385Z,17.00
2018-05-10T05:07:35.878Z,17.00
2018-05-10T05:08:38.356Z,16.90
2018-05-10T05:09:41.597Z,17.00
2018-05-10T05:10:44.250Z,17.00
2018-05-10T05:11:46.763Z,17.00
2018-05-10T05:12:50.020Z,17.00
2018-05-10T05:13:52.488Z,17.00
2018-05-10T05:14:54.959Z,17.10
2018-05-10T05:15:57.677Z,17.10
2018-05-10T05:17:00.175Z,17.20
2018-05-10T05:18:02.668Z,17.10
2018-05-10T05:19:05.144Z,17.00
2018-05-10T05:20:08.556Z,17.00
2018-05-10T05:21:11.664Z,16.90
2018-05-10T05:22:14.159Z,16.90
2018-05-10T05:23:16.654Z,16.80
2018-05-10T05:24:19.890Z,16.80
2018-05-10T05:25:22.516Z,16.80
2018-05-10T05:26:25.289Z,16.80
2018-05-10T05:27:27.800Z,16.80
2018-05-10T05:28:30.283Z,16.90
2018-05-10T05:29:33.568Z,17.00
2018-05-10T05:30:37.093Z,17.00
2018-05-10T05:31:39.588Z,17.00
2018-05-10T05:32:42.071Z,17.00
2018-05-10T05:33:44.556Z,17.00
2018-05-10T05:34:47.049Z,17.00
2018-05-10T05:35:50.443Z,17.00
2018-05-10T05:36:52.937Z,17.10
2018-05-10T05:37:55.407Z,17.10
2018-05-10T05:38:57.905Z,17.10
2018-05-10T05:40:01.139Z,17.10
2018-05-10T05:41:03.960Z,17.10
2018-05-10T05:42:07.200Z,17.20
2018-05-10T05:43:09.673Z,17.30
2018-05-10T05:44:12.164Z,17.30
2018-05-10T05:45:15.786Z,17.40
2018-05-10T05:46:18.596Z,17.40
2018-05-10T05:47:21.087Z,17.40
2018-05-10T05:48:24.335Z,17.50
2018-05-10T05:49:26.828Z,17.50
2018-05-10T05:50:29.559Z,17.60
2018-05-10T05:51:32.043Z,17.60
2018-05-10T05:52:34.512Z,17.70
2018-05-10T05:53:36.984Z,17.70
2018-05-10T05:54:39.552Z,17.70
2018-05-10T05:55:43.041Z,17.80
2018-05-10T05:56:46.296Z,17.80
2018-05-10T05:57:48.775Z,17.80
2018-05-10T05:58:51.243Z,17.80
2018-05-10T05:59:53.733Z,17.80
2018-05-10T06:00:57.359Z,17.90
2018-05-10T06:01:59.786Z,17.90
2018-05-10T06:03:03.025Z,17.90
2018-05-10T06:04:05.491Z,17.90
2018-05-10T06:05:08.285Z,17.90
2018-05-10T06:06:11.830Z,17.90
2018-05-10T06:07:14.333Z,17.90
2018-05-10T06:08:16.799Z,17.80
2018-05-10T06:09:19.271Z,17.80
2018-05-10T06:10:22.044Z,17.80
2018-05-10T06:11:25.584Z,17.90
2018-05-10T06:12:28.076Z,17.90
2018-05-10T06:13:30.548Z,17.90
2018-05-10T06:14:33.020Z,17.80
2018-05-10T06:15:35.806Z,17.70
2018-05-10T06:16:38.321Z,17.70
2018-05-10T06:17:40.791Z,17.70
2018-05-10T06:18:43.265Z,17.70
2018-05-10T06:19:45.731Z,17.70
2018-05-10T06:20:48.905Z,17.60
2018-05-10T06:21:51.391Z,17.70
2018-05-10T06:22:53.859Z,17.70
2018-05-10T06:23:56.337Z,17.70
2018-05-10T06:24:58.833Z,17.80
2018-05-10T06:26:01.517Z,17.80
2018-05-10T06:27:04.016Z,17.90
2018-05-10T06:28:06.487Z,17.90
2018-05-10T06:29:08.954Z,18.00
2018-05-10T06:30:12.501Z,18.00
2018-05-10T06:31:15.608Z,18.10
2018-05-10T06:32:18.100Z,18.20
2018-05-10T06:33:20.569Z,18.20
2018-05-10T06:34:24.549Z,18.30
2018-05-10T06:35:27.279Z,18.20
2018-05-10T06:36:29.852Z,18.30
2018-05-10T06:37:32.324Z,18.30
2018-05-10T06:38:34.795Z,18.30
2018-05-10T06:39:37.301Z,18.30
2018-05-10T06:40:41.474Z,18.30
2018-05-10T06:41:43.980Z,18.20
2018-05-10T06:42:47.215Z,18.30
2018-05-10T06:43:49.684Z,18.20
2018-05-10T06:44:52.161Z,18.30
2018-05-10T06:45:54.993Z,18.30
2018-05-10T06:46:57.575Z,18.30
2018-05-10T06:48:00.784Z,18.30
2018-05-10T06:49:03.259Z,18.30
2018-05-10T06:50:05.903Z,18.30
2018-05-10T06:51:09.476Z,18.40
2018-05-10T06:52:12.008Z,18.40
2018-05-10T06:53:15.240Z,18.40
2018-05-10T06:54:17.712Z,18.40
2018-05-10T06:55:20.448Z,18.40
2018-05-10T06:56:23.008Z,18.40
2018-05-10T06:57:25.515Z,18.50
2018-05-10T06:58:27.983Z,18.50
2018-05-10T06:59:30.456Z,18.50
2018-05-10T07:00:33.197Z,18.50
2018-05-10T07:01:35.684Z,18.50
2018-05-10T07:02:38.264Z,18.50
2018-05-10T07:03:40.736Z,18.50
2018-05-10T07:04:43.971Z,18.40
2018-05-10T07:05:46.773Z,18.40
2018-05-10T07:06:50.039Z,18.30
2018-05-10T07:07:52.532Z,18.30
2018-05-10T07:08:55.008Z,18.40
2018-05-10T07:09:57.736Z,18.40
2018-05-10T07:11:01.044Z,18.40
2018-05-10T07:12:04.296Z,18.40
2018-05-10T07:13:06.868Z,18.40
2018-05-10T07:14:09.339Z,18.40
2018-05-10T07:15:12.084Z,18.40
2018-05-10T07:16:15.364Z,18.40
2018-05-10T07:17:17.871Z,18.30
2018-05-10T07:18:20.355Z,18.30
2018-05-10T07:19:23.596Z,18.20
2018-05-10T07:20:26.348Z,18.20
2018-05-10T07:21:28.863Z,18.20
2018-05-10T07:22:31.340Z,18.20
2018-05-10T07:23:34.595Z,18.10
2018-05-10T07:24:37.064Z,18.10
2018-05-10T07:25:39.795Z,18.00
2018-05-10T07:26:42.296Z,18.00
2018-05-10T07:27:44.773Z,18.00
2018-05-10T07:28:47.320Z,18.00
2018-05-10T07:29:49.791Z,18.00
2018-05-10T07:30:52.540Z,18.00
2018-05-10T07:31:55.028Z,18.00
2018-05-10T07:32:57.561Z,17.90
2018-05-10T07:34:00.001Z,17.90
2018-05-10T07:35:03.253Z,18.00
2018-05-10T07:36:06.792Z,18.00
2018-05-10T07:37:09.304Z,18.00
2018-05-10T07:38:11.776Z,18.10
2018-05-10T07:39:14.267Z,18.10
2018-05-10T07:40:17.775Z,18.10
2018-05-10T07:41:20.695Z,18.10
2018-05-10T07:42:23.967Z,18.20
2018-05-10T07:43:26.436Z,18.20
2018-05-10T07:44:28.935Z,18.20
2018-05-10T07:45:32.358Z,18.20
2018-05-10T07:46:34.848Z,18.10
2018-05-10T07:47:37.316Z,18.20
2018-05-10T07:48:39.784Z,18.20
2018-05-10T07:49:42.271Z,18.20
2018-05-10T07:50:45.814Z,18.20
2018-05-10T07:51:48.304Z,18.20
2018-05-10T07:52:50.776Z,18.20
2018-05-10T07:53:53.248Z,18.20
2018-05-10T07:54:56.503Z,18.30
2018-05-10T07:55:59.245Z,18.30
2018-05-10T07:57:01.747Z,18.40
2018-05-10T07:58:04.218Z,18.40
2018-05-10T07:59:06.696Z,18.40
2018-05-10T08:00:11.866Z,18.60
2018-05-10T08:01:14.739Z,18.60
2018-05-10T08:02:17.315Z,18.60
2018-05-10T08:03:21.239Z,18.70
2018-05-10T08:04:23.712Z,18.70
2018-05-10T08:05:26.541Z,18.80
2018-05-10T08:06:29.108Z,18.90
2018-05-10T08:07:31.572Z,18.90
2018-05-10T08:08:34.044Z,18.90
2018-05-10T08:09:36.511Z,18.90
2018-05-10T08:10:39.319Z,18.90
2018-05-10T08:11:42.578Z,18.80
2018-05-10T08:12:45.048Z,18.80
2018-05-10T08:13:47.520Z,18.80
2018-05-10T08:14:49.992Z,18.80
2018-05-10T08:15:53.232Z,18.70
2018-05-10T08:16:55.765Z,18.70
2018-05-10T08:17:58.203Z,18.70
2018-05-10T08:19:00.680Z,18.60
2018-05-10T08:20:03.294Z,18.60
2018-05-10T08:21:06.038Z,18.60
2018-05-10T08:22:08.535Z,18.50
2018-05-10T08:23:11.009Z,18.50
2018-05-10T08:24:13.489Z,18.50
2018-05-10T08:25:16.331Z,18.50
2018-05-10T08:26:19.141Z,18.50
2018-05-10T08:27:21.683Z,18.50
2018-05-10T08:28:24.152Z,18.50
2018-05-10T08:29:30.660Z,18.60
2018-05-10T08:30:34.074Z,18.50
2018-05-10T08:31:36.575Z,18.50
2018-05-10T08:32:39.054Z,18.50
2018-05-10T08:33:41.523Z,18.50
2018-05-10T08:34:43.996Z,18.50
2018-05-10T08:35:48.281Z,18.50
2018-05-10T08:36:50.877Z,18.40
2018-05-10T08:37:54.023Z,18.50
2018-05-10T08:38:56.492Z,18.60
2018-05-10T08:39:58.956Z,18.60
2018-05-10T08:41:01.693Z,18.70
2018-05-10T08:42:04.224Z,18.70
2018-05-10T08:43:07.466Z,18.80
2018-05-10T08:44:09.932Z,18.80
2018-05-10T08:45:12.674Z,18.80
2018-05-10T08:46:15.547Z,18.80
2018-05-10T08:47:18.092Z,18.90
2018-05-10T08:48:21.321Z,19.00
2018-05-10T08:49:23.788Z,19.00
2018-05-10T08:50:26.530Z,19.00
2018-05-10T08:51:29.332Z,19.10
2018-05-10T08:52:31.808Z,19.10
2018-05-10T08:53:34.268Z,19.10
2018-05-10T08:54:36.732Z,19.20
2018-05-10T08:55:39.467Z,19.20
2018-05-10T08:56:41.955Z,19.30
2018-05-10T08:57:44.456Z,19.30
2018-05-10T08:58:47.688Z,19.40
2018-05-10T08:59:50.226Z,19.40
2018-05-10T09:00:52.985Z,19.40
2018-05-10T09:01:56.227Z,19.50
2018-05-10T09:02:58.736Z,19.50
2018-05-10T09:04:01.968Z,19.60
2018-05-10T09:05:04.614Z,19.60
2018-05-10T09:06:07.385Z,19.70
2018-05-10T09:07:09.885Z,19.70
2018-05-10T09:08:12.368Z,19.60
2018-05-10T09:09:14.828Z,19.60
2018-05-10T09:10:17.598Z,19.60
2018-05-10T09:11:21.037Z,19.50
2018-05-10T09:12:23.530Z,19.50
2018-05-10T09:13:26.008Z,19.50
2018-05-10T09:14:28.476Z,19.50
2018-05-10T09:15:31.303Z,19.50
2018-05-10T09:16:33.799Z,19.50
2018-05-10T09:17:36.263Z,19.50
2018-05-10T09:18:38.752Z,19.50
2018-05-10T09:19:42.728Z,19.40
2018-05-10T09:20:45.468Z,19.40
2018-05-10T09:21:47.964Z,19.30
2018-05-10T09:22:50.428Z,19.30
2018-05-10T09:23:52.915Z,19.30
2018-05-10T09:24:55.380Z,19.30
2018-05-10T09:25:59.374Z,19.30
2018-05-10T09:27:02.636Z,19.40
2018-05-10T09:28:05.095Z,19.30
2018-05-10T09:29:07.580Z,19.40
2018-05-10T09:30:10.221Z,19.50
2018-05-10T09:31:12.874Z,19.50
2018-05-10T09:32:15.364Z,19.40
2018-05-10T09:33:17.827Z,19.40
2018-05-10T09:34:20.328Z,19.50
2018-05-10T09:35:23.141Z,19.50
2018-05-10T09:36:25.912Z,19.60
2018-05-10T09:37:28.408Z,19.50
2018-05-10T09:38:30.872Z,19.50
2018-05-10T09:39:33.365Z,19.50
2018-05-10T09:40:36.900Z,19.50
2018-05-10T09:41:39.399Z,19.50
2018-05-10T09:42:41.863Z,19.50
2018-05-10T09:43:44.328Z,19.60
2018-05-10T09:44:46.885Z,19.60
2018-05-10T09:45:50.240Z,19.70
2018-05-10T09:46:52.719Z,19.70
2018-05-10T09:47:55.188Z,19.80
2018-05-10T09:48:57.683Z,19.70
2018-05-10T09:50:00.168Z,19.70
2018-05-10T09:51:03.697Z,19.70
2018-05-10T09:52:06.176Z,19.70
2018-05-10T09:53:08.647Z,19.70
2018-05-10T09:54:11.117Z,19.70
2018-05-10T09:55:13.901Z,19.70
2018-05-10T09:56:17.443Z,19.60
2018-05-10T09:57:19.944Z,19.60
2018-05-10T09:58:22.408Z,19.60
2018-05-10T09:59:24.876Z,19.60
2018-05-10T10:00:29.497Z,19.50
2018-05-10T10:01:32.751Z,19.40
2018-05-10T10:02:35.212Z,19.40
2018-05-10T10:03:37.680Z,19.40
2018-05-10T10:04:40.152Z,19.40
2018-05-10T10:05:42.940Z,19.30
2018-05-10T10:06:46.196Z,19.30
2018-05-10T10:07:48.664Z,19.30
2018-05-10T10:08:51.129Z,19.30
2018-05-10T10:09:53.588Z,19.30
2018-05-10T10:10:56.370Z,19.30
2018-05-10T10:11:58.847Z,19.40
2018-05-10T10:13:01.308Z,19.40
2018-05-10T10:14:03.780Z,19.40
2018-05-10T10:15:06.614Z,19.40
2018-05-10T10:16:09.430Z,19.40
2018-05-10T10:17:12.688Z,19.50
2018-05-10T10:18:15.206Z,19.40
2018-05-10T10:19:18.440Z,19.50
2018-05-10T10:20:21.847Z,19.50
2018-05-10T10:21:24.673Z,19.60
2018-05-10T10:22:27.176Z,19.60
2018-05-10T10:23:29.644Z,19.60
2018-05-10T10:24:32.108Z,19.70
2018-05-10T10:25:35.452Z,19.70
2018-05-10T10:26:37.972Z,19.80
2018-05-10T10:27:40.436Z,19.80
2018-05-10T10:28:42.899Z,19.80
2018-05-10T10:29:45.367Z,19.80
2018-05-10T10:30:48.694Z,19.80
2018-05-10T10:31:51.192Z,19.70
2018-05-10T10:32:53.660Z,19.70
2018-05-10T10:33:56.124Z,19.70
2018-05-10T10:34:58.590Z,19.80
2018-05-10T10:36:01.428Z,19.80
2018-05-10T10:37:03.948Z,19.80
2018-05-10T10:38:07.201Z,19.80
2018-05-10T10:39:09.656Z,19.80
2018-05-10T10:40:12.434Z,19.90
2018-05-10T10:41:15.999Z,19.90
2018-05-10T10:42:18.532Z,19.90
2018-05-10T10:43:21.768Z,20.00
2018-05-10T10:44:24.227Z,19.90
2018-05-10T10:45:26.989Z,20.00
2018-05-10T10:46:29.856Z,20.00
2018-05-10T10:47:32.388Z,20.00
2018-05-10T10:48:34.856Z,20.00
2018-05-10T10:49:37.319Z,20.00
2018-05-10T10:50:40.839Z,19.90
2018-05-10T10:51:43.332Z,19.90
2018-05-10T10:52:45.885Z,19.80
2018-05-10T10:53:48.351Z,19.80
2018-05-10T10:54:50.814Z,19.70
2018-05-10T10:55:53.620Z,19.60
2018-05-10T10:56:56.896Z,19.60
2018-05-10T10:57:59.384Z,19.50
2018-05-10T10:59:02.616Z,19.50
2018-05-10T11:00:05.416Z,19.50
2018-05-10T11:01:08.132Z,19.40
2018-05-10T11:02:10.625Z,19.40
2018-05-10T11:03:13.130Z,19.30
2018-05-10T11:04:16.360Z,19.10
2018-05-10T11:05:19.131Z,19.10
2018-05-10T11:06:21.836Z,19.00
2018-05-10T11:07:24.300Z,18.90
2018-05-10T11:08:26.942Z,18.80
2018-05-10T11:09:29.413Z,18.70
2018-05-10T11:10:32.190Z,18.70
2018-05-10T11:11:34.672Z,18.50
2018-05-10T11:12:37.135Z,18.40
2018-05-10T11:13:39.628Z,18.40
2018-05-10T11:14:42.087Z,18.40
2018-05-10T11:15:45.612Z,18.30
2018-05-10T11:16:48.112Z,18.30
2018-05-10T11:17:50.575Z,18.20
2018-05-10T11:18:53.064Z,18.20
2018-05-10T11:19:57.040Z,18.20
2018-05-10T11:20:59.701Z,18.20
2018-05-10T11:22:02.184Z,18.30
2018-05-10T11:23:04.651Z,18.30
2018-05-10T11:24:07.144Z,18.30
2018-05-10T11:25:10.964Z,18.50
2018-05-10T11:26:13.751Z,18.50
2018-05-10T11:27:16.249Z,18.50
2018-05-10T11:28:18.712Z,18.50
2018-05-10T11:29:21.204Z,18.50
2018-05-10T11:30:24.822Z,18.50
2018-05-10T11:31:27.592Z,18.40
2018-05-10T11:32:30.061Z,18.50
2018-05-10T11:33:32.528Z,18.50
2018-05-10T11:34:35.012Z,18.50
2018-05-10T11:35:37.647Z,18.50
2018-05-10T11:36:40.136Z,18.50
2018-05-10T11:37:42.604Z,18.50
2018-05-10T11:38:45.072Z,18.50
2018-05-10T11:39:47.571Z,18.50
2018-05-10T11:40:50.303Z,18.50
2018-05-10T11:41:52.792Z,18.50
2018-05-10T11:42:55.259Z,18.40
2018-05-10T11:43:57.780Z,18.40
2018-05-10T11:45:00.264Z,18.40
2018-05-10T11:46:03.014Z,18.40
2018-05-10T11:47:05.504Z,18.40
2018-05-10T11:48:07.971Z,18.40
2018-05-10T11:49:10.436Z,18.40
2018-05-10T11:50:13.279Z,18.50
2018-05-10T11:51:16.113Z,18.50
2018-05-10T11:52:19.367Z,18.40
2018-05-10T11:53:21.836Z,18.40
2018-05-10T11:54:24.304Z,18.40
2018-05-10T11:55:27.034Z,18.40
2018-05-10T11:56:29.568Z,18.40
2018-05-10T11:57:32.804Z,18.30
2018-05-10T11:58:35.273Z,18.30
2018-05-10T11:59:37.779Z,18.30
2018-05-10T12:00:41.573Z,18.30
2018-05-10T12:01:44.820Z,18.30
2018-05-10T12:02:47.288Z,18.30
2018-05-10T12:03:49.758Z,18.30
2018-05-10T12:04:52.220Z,18.30
2018-05-10T12:05:54.996Z,18.30
2018-05-10T12:06:57.476Z,18.30
2018-05-10T12:08:00.715Z,18.40
2018-05-10T12:09:03.180Z,18.40
2018-05-10T12:10:05.936Z,18.40
2018-05-10T12:11:08.708Z,18.40
2018-05-10T12:12:11.204Z,18.40
2018-05-10T12:13:13.673Z,18.30
2018-05-10T12:14:16.140Z,18.30
2018-05-10T12:15:18.974Z,18.30
2018-05-10T12:16:21.745Z,18.30
2018-05-10T12:17:24.246Z,18.20
2018-05-10T12:18:26.775Z,18.10
2018-05-10T12:19:29.255Z,18.00
2018-05-10T12:20:32.100Z,18.00
2018-05-10T12:21:34.620Z,18.00
2018-05-10T12:22:37.132Z,18.00
2018-05-10T12:23:40.363Z,17.90
2018-05-10T12:24:42.832Z,17.90
2018-05-10T12:25:45.562Z,17.90
2018-05-10T12:26:48.088Z,17.90
2018-05-10T12:27:51.327Z,17.80
2018-05-10T12:28:53.795Z,17.80
2018-05-10T12:29:56.264Z,17.70
2018-05-10T12:30:59.013Z,17.70
2018-05-10T12:32:01.576Z,17.60
2018-05-10T12:33:04.040Z,17.60
2018-05-10T12:34:06.512Z,17.50
2018-05-10T12:35:10.029Z,17.50
2018-05-10T12:36:12.820Z,17.50
2018-05-10T12:37:16.100Z,17.60
2018-05-10T12:38:18.568Z,17.60
2018-05-10T12:39:21.036Z,17.60
2018-05-10T12:40:23.852Z,17.50
2018-05-10T12:41:26.620Z,17.50
2018-05-10T12:42:29.156Z,17.50
2018-05-10T12:43:32.392Z,17.60
2018-05-10T12:44:34.860Z,17.50
2018-05-10T12:45:38.525Z,17.60
2018-05-10T12:46:41.016Z,17.70
2018-05-10T12:47:43.524Z,17.70
2018-05-10T12:48:46.837Z,17.90
2018-05-10T12:49:49.236Z,17.80
2018-05-10T12:50:51.878Z,17.90
2018-05-10T12:51:54.371Z,17.90
2018-05-10T12:52:56.887Z,17.90
2018-05-10T12:53:59.361Z,17.90
2018-05-10T12:55:01.932Z,18.00
2018-05-10T12:56:05.715Z,18.00
2018-05-10T12:57:08.928Z,18.10
2018-05-10T12:58:11.443Z,18.10
2018-05-10T12:59:14.679Z,18.10
2018-05-10T13:00:17.428Z,18.10
2018-05-10T13:01:21.139Z,18.10
2018-05-10T13:02:23.624Z,18.10
2018-05-10T13:03:26.131Z,18.20
2018-05-10T13:04:29.367Z,18.30
2018-05-10T13:05:32.103Z,18.30
2018-05-10T13:06:34.604Z,18.30
2018-05-10T13:07:37.072Z,18.30
2018-05-10T13:08:39.572Z,18.40
2018-05-10T13:09:42.807Z,18.50
2018-05-10T13:10:45.653Z,18.40
2018-05-10T13:11:48.156Z,18.50
2018-05-10T13:12:50.628Z,18.60
2018-05-10T13:13:53.129Z,18.70
2018-05-10T13:14:56.376Z,18.80
2018-05-10T13:15:59.129Z,18.80
2018-05-10T13:17:02.400Z,18.90
2018-05-10T13:18:04.871Z,18.90
2018-05-10T13:19:07.368Z,18.90
2018-05-10T13:20:10.186Z,18.90
2018-05-10T13:21:12.959Z,19.00
2018-05-10T13:22:15.464Z,19.00
2018-05-10T13:23:17.940Z,19.00
2018-05-10T13:24:20.423Z,19.10
2018-05-10T13:25:24.488Z,19.00
2018-05-10T13:26:27.951Z,19.00
2018-05-10T13:27:30.419Z,18.90
2018-05-10T13:28:32.887Z,19.00
2018-05-10T13:29:35.392Z,19.00
2018-05-10T13:30:38.105Z,19.00
2018-05-10T13:31:40.608Z,19.00